createdAt,value
2023-02-04T00:00:18.052Z,95742.91
2023-02-04T00:02:44.944Z,95760.19
2023-02-04T00:05:13.284Z,95763.72
2023-02-04T00:07:41.509Z,95771.53
2023-02-04T00:10:09.615Z,95757.59
2023-02-04T00:12:36.850Z,95773.72
2023-02-04T00:15:05.386Z,95772.81
2023-02-04T00:17:32.269Z,95767.06
2023-02-04T00:19:59.029Z,95747.88
2023-02-04T00:22:28.377Z,95754.13
2023-02-04T00:24:55.302Z,95773.91
2023-02-04T00:27:22.521Z,95758.66
2023-02-04T00:29:50.608Z,95755.16
2023-02-04T00:32:17.551Z,95754.13
2023-02-04T00:34:44.406Z,95770.38
2023-02-04T00:37:11.226Z,95773.47
2023-02-04T00:39:37.968Z,95764.53
2023-02-04T00:42:05.862Z,95784.16
2023-02-04T00:44:32.743Z,95764.53
2023-02-04T00:46:59.644Z,95781.63
2023-02-04T00:49:26.399Z,95785.50
2023-02-04T00:51:53.131Z,95779.84
2023-02-04T00:54:19.969Z,95766.31
2023-02-04T00:56:46.819Z,95775.69
2023-02-04T00:59:13.657Z,95774.97
2023-02-04T01:01:40.449Z,95771.41
2023-02-04T01:04:07.245Z,95773.53
2023-02-04T01:06:34.902Z,95730.50
2023-02-04T01:09:02.088Z,95785.84
2023-02-04T01:11:30.882Z,95782.81
2023-02-04T01:13:57.692Z,95783.88
2023-02-04T01:16:24.790Z,95789.38
2023-02-04T01:18:51.645Z,95774.97
2023-02-04T01:21:18.431Z,95788.31
2023-02-04T01:23:45.214Z,95792.91
2023-02-04T01:26:11.967Z,95791.28
2023-02-04T01:28:38.753Z,95791.50
2023-02-04T01:31:05.768Z,95780.84
2023-02-04T01:33:32.829Z,95805.84
2023-02-04T01:35:59.619Z,95807.50
2023-02-04T01:38:26.562Z,95815.66
2023-02-04T01:40:53.660Z,95817.28
2023-02-04T01:43:22.570Z,95803.31
2023-02-04T01:45:52.611Z,95791.81
2023-02-04T01:48:21.887Z,95807.66
2023-02-04T01:50:55.518Z,95799.09
2023-02-04T01:53:25.167Z,95794.81
2023-02-04T01:55:53.268Z,95780.66
2023-02-04T01:58:20.489Z,95782.19
2023-02-04T02:00:47.386Z,95787.41
2023-02-04T02:03:14.168Z,95781.00
2023-02-04T02:05:46.786Z,95776.16
2023-02-04T02:08:14.805Z,95790.81
2023-02-04T02:10:46.177Z,95791.53
2023-02-04T02:13:16.650Z,95774.16
2023-02-04T02:15:43.842Z,95788.38
2023-02-04T02:18:11.250Z,95784.81
2023-02-04T02:20:38.447Z,95788.81
2023-02-04T02:23:29.760Z,95807.38
2023-02-04T02:25:56.499Z,95805.25
2023-02-04T02:28:24.442Z,95794.59
2023-02-04T02:30:51.775Z,95785.09
2023-02-04T02:33:20.795Z,95784.97
2023-02-04T02:35:51.263Z,95796.16
2023-02-04T02:38:19.713Z,95794.94
2023-02-04T02:40:48.356Z,95806.13
2023-02-04T02:43:20.467Z,95801.75
2023-02-04T02:45:48.166Z,95806.59
2023-02-04T02:48:14.974Z,95800.19
2023-02-04T02:50:43.087Z,95778.66
2023-02-04T02:53:17.163Z,95788.59
2023-02-04T02:55:44.548Z,95791.97
2023-02-04T02:58:23.489Z,95804.69
2023-02-04T03:00:50.643Z,95795.59
2023-02-04T03:03:25.787Z,95805.66
2023-02-04T03:05:58.237Z,95783.19
2023-02-04T03:08:25.091Z,95780.31
2023-02-04T03:10:52.223Z,95783.09
2023-02-04T03:13:19.915Z,95804.50
2023-02-04T03:15:48.598Z,95810.09
2023-02-04T03:18:19.760Z,95788.66
2023-02-04T03:20:48.209Z,95813.25
2023-02-04T03:23:15.091Z,95803.63
2023-02-04T03:25:41.929Z,95815.56
2023-02-04T03:28:09.591Z,95798.13
2023-02-04T03:30:36.678Z,95817.19
2023-02-04T03:33:03.689Z,95816.81
2023-02-04T03:35:30.475Z,95819.09
2023-02-04T03:37:57.231Z,95792.88
2023-02-04T03:40:23.976Z,95819.97
2023-02-04T03:42:50.756Z,95807.47
2023-02-04T03:45:17.630Z,95803.97
2023-02-04T03:47:44.383Z,95814.19
2023-02-04T03:50:13.324Z,95801.78
2023-02-04T03:52:40.154Z,95802.63
2023-02-04T03:55:07.581Z,95819.00
2023-02-04T03:57:34.308Z,95819.09
2023-02-04T04:00:01.029Z,95820.88
2023-02-04T04:02:27.822Z,95817.56
2023-02-04T04:04:54.555Z,95821.00
2023-02-04T04:07:21.324Z,95820.50
2023-02-04T04:09:48.073Z,95832.56
2023-02-04T04:12:14.853Z,95831.22
2023-02-04T04:14:41.604Z,95825.72
2023-02-04T04:17:08.417Z,95830.16
2023-02-04T04:19:35.676Z,95825.91
2023-02-04T04:22:02.467Z,95839.06
2023-02-04T04:24:29.214Z,95831.22
2023-02-04T04:26:55.946Z,95844.56
2023-02-04T04:29:22.694Z,95827.38
2023-02-04T04:31:49.574Z,95834.91
2023-02-04T04:34:16.388Z,95851.56
2023-02-04T04:36:43.201Z,95840.59
2023-02-04T04:39:10.120Z,95852.41
2023-02-04T04:41:36.879Z,95859.16
2023-02-04T04:44:03.676Z,95870.34
2023-02-04T04:46:30.600Z,95850.84
2023-02-04T04:48:57.324Z,95877.78
2023-02-04T04:51:24.108Z,95870.00
2023-02-04T04:53:51.174Z,95886.03
2023-02-04T04:56:19.253Z,95864.03
2023-02-04T04:58:46.022Z,95889.47
2023-02-04T05:01:12.853Z,95854.53
2023-02-04T05:03:39.731Z,95858.50
2023-02-04T05:06:07.471Z,95893.34
2023-02-04T05:08:35.953Z,95889.56
2023-02-04T05:11:03.478Z,95872.91
2023-02-04T05:13:30.872Z,95892.19
2023-02-04T05:15:57.627Z,95878.53
2023-02-04T05:18:24.569Z,95892.13
2023-02-04T05:20:51.306Z,95892.63
2023-02-04T05:23:18.149Z,95877.81
2023-02-04T05:25:44.909Z,95875.63
2023-02-04T05:28:11.781Z,95899.00
2023-02-04T05:30:38.604Z,95894.19
2023-02-04T05:33:05.396Z,95899.66
2023-02-04T05:35:32.130Z,95899.84
2023-02-04T05:37:58.865Z,95930.31
2023-02-04T05:40:25.630Z,95907.56
2023-02-04T05:42:52.381Z,95901.53
2023-02-04T05:45:19.376Z,95918.84
2023-02-04T05:47:47.510Z,95924.28
2023-02-04T05:50:14.485Z,95928.44
2023-02-04T05:52:41.401Z,95926.88
2023-02-04T05:55:11.166Z,95933.13
2023-02-04T05:57:39.391Z,95933.66
2023-02-04T06:00:07.492Z,95949.00
2023-02-04T06:02:34.303Z,95937.63
2023-02-04T06:05:01.067Z,95942.84
2023-02-04T06:07:27.851Z,95921.34
2023-02-04T06:09:54.612Z,95950.84
2023-02-04T06:12:21.374Z,95941.16
2023-02-04T06:14:48.126Z,95965.78
2023-02-04T06:17:14.872Z,95969.44
2023-02-04T06:19:41.688Z,95970.34
2023-02-04T06:22:08.421Z,95980.69
2023-02-04T06:24:35.225Z,95962.13
2023-02-04T06:27:01.979Z,95980.38
2023-02-04T06:29:28.705Z,95975.97
2023-02-04T06:31:55.612Z,95952.81
2023-02-04T06:34:22.696Z,95971.16
2023-02-04T06:36:49.423Z,95964.91
2023-02-04T06:39:16.163Z,95976.56
2023-02-04T06:41:43.982Z,95959.22
2023-02-04T06:44:10.737Z,95965.88
2023-02-04T06:46:37.569Z,95964.00
2023-02-04T06:49:04.333Z,95985.72
2023-02-04T06:51:31.136Z,95990.63
2023-02-04T06:53:59.279Z,96005.31
2023-02-04T06:56:27.102Z,95986.91
2023-02-04T06:58:53.841Z,95980.59
2023-02-04T07:01:20.685Z,96011.09
2023-02-04T07:03:47.538Z,95979.56
2023-02-04T07:06:14.294Z,95986.91
2023-02-04T07:08:41.042Z,96000.66
2023-02-04T07:11:07.854Z,96006.28
2023-02-04T07:13:34.619Z,95998.75
2023-02-04T07:16:01.432Z,95993.63
2023-02-04T07:18:28.294Z,95991.97
2023-02-04T07:20:55.097Z,95999.25
2023-02-04T07:23:21.890Z,96008.34
2023-02-04T07:25:49.239Z,96014.38
2023-02-04T07:28:16.033Z,96028.97
2023-02-04T07:30:42.884Z,96026.59
2023-02-04T07:33:09.717Z,96026.25
2023-02-04T07:35:38.149Z,96014.16
2023-02-04T07:38:05.681Z,96026.59
2023-02-04T07:40:33.191Z,96026.59
2023-02-04T07:43:00.238Z,96013.22
2023-02-04T07:45:27.018Z,96019.81
2023-02-04T07:47:53.768Z,96014.69
2023-02-04T07:50:21.031Z,96022.03
2023-02-04T07:52:47.781Z,96032.56
2023-02-04T07:55:14.668Z,96031.63
2023-02-04T07:57:41.438Z,96032.44
2023-02-04T08:00:09.654Z,96027.25
2023-02-04T08:02:36.431Z,96024.09
2023-02-04T08:05:03.213Z,96034.97
2023-02-04T08:07:30.017Z,96042.22
2023-02-04T08:09:56.742Z,96021.97
2023-02-04T08:12:23.566Z,96032.84
2023-02-04T08:14:50.411Z,96053.41
2023-02-04T08:17:17.157Z,96059.38
2023-02-04T08:19:43.906Z,96062.72
2023-02-04T08:22:11.773Z,96048.56
2023-02-04T08:24:38.562Z,96062.88
2023-02-04T08:27:05.402Z,96070.53
2023-02-04T08:29:32.225Z,96073.31
2023-02-04T08:31:59.262Z,96069.13
2023-02-04T08:34:26.009Z,96058.16
2023-02-04T08:36:52.790Z,96061.22
2023-02-04T08:39:19.547Z,96075.00
2023-02-04T08:41:46.402Z,96057.75
2023-02-04T08:44:13.117Z,96077.78
2023-02-04T08:46:40.046Z,96071.53
2023-02-04T08:49:06.847Z,96083.53
2023-02-04T08:51:33.689Z,96060.09
2023-02-04T08:54:00.454Z,96083.44
2023-02-04T08:56:27.172Z,96086.69
2023-02-04T08:58:54.037Z,96078.22
2023-02-04T09:01:21.247Z,96070.78
2023-02-04T09:03:48.135Z,96090.59
2023-02-04T09:06:14.949Z,96094.22
2023-02-04T09:08:41.715Z,96080.25
2023-02-04T09:11:10.975Z,96087.03
2023-02-04T09:13:38.111Z,96084.16
2023-02-04T09:16:05.512Z,96097.28
2023-02-04T09:18:32.835Z,96095.94
2023-02-04T09:20:59.739Z,96096.59
2023-02-04T09:23:26.587Z,96080.53
2023-02-04T09:25:54.860Z,96099.56
2023-02-04T09:28:21.728Z,96086.84
2023-02-04T09:30:48.673Z,96088.13
2023-02-04T09:33:17.147Z,96115.06
2023-02-04T09:35:44.804Z,96109.84
2023-02-04T09:38:11.688Z,96107.41
2023-02-04T09:40:44.431Z,96109.94
2023-02-04T09:43:20.770Z,96102.59
2023-02-04T09:45:49.623Z,96124.38
2023-02-04T09:48:17.268Z,96115.66
2023-02-04T09:50:44.271Z,96114.03
2023-02-04T09:53:17.695Z,96112.16
2023-02-04T09:55:47.260Z,96113.94
2023-02-04T09:58:22.916Z,96124.22
2023-02-04T10:01:02.172Z,96098.59
2023-02-04T10:03:29.052Z,96120.69
2023-02-04T10:05:55.847Z,96123.69
2023-02-04T10:08:30.747Z,96119.53
2023-02-04T10:10:58.213Z,96124.75
2023-02-04T10:13:33.458Z,96133.72
2023-02-04T10:16:01.579Z,96126.63
2023-02-04T10:18:34.208Z,96122.88
2023-02-04T10:21:22.042Z,96144.25
2023-02-04T10:23:55.231Z,96137.53
2023-02-04T10:26:29.521Z,96135.75
2023-02-04T10:29:05.453Z,96141.28
2023-02-04T10:31:41.616Z,96135.34
2023-02-04T10:34:21.334Z,96112.88
2023-02-04T10:36:58.000Z,96117.16
2023-02-04T10:39:28.311Z,96122.78
2023-02-04T10:41:58.050Z,96119.13
2023-02-04T10:44:36.166Z,96090.41
2023-02-04T10:47:09.658Z,96104.06
2023-02-04T10:49:36.727Z,96076.34
2023-02-04T10:52:16.179Z,96093.44
2023-02-04T10:54:43.728Z,96101.94
2023-02-04T10:57:28.726Z,96104.78
2023-02-04T10:59:59.864Z,96112.03
2023-02-04T11:02:34.952Z,96096.44
2023-02-04T11:05:02.980Z,96078.16
2023-02-04T11:07:30.701Z,96111.78
2023-02-04T11:09:58.045Z,96087.97
2023-02-04T11:12:48.044Z,96099.06
2023-02-04T11:15:42.721Z,96102.22
2023-02-04T11:18:12.698Z,96104.50
2023-02-04T11:20:40.990Z,96101.16
2023-02-04T11:23:26.993Z,96105.13
2023-02-04T11:26:04.368Z,96110.94
2023-02-04T11:29:01.215Z,96107.84
2023-02-04T11:31:32.649Z,96110.75
2023-02-04T11:34:21.720Z,96105.84
2023-02-04T11:37:12.287Z,96099.31
2023-02-04T11:40:01.127Z,96093.16
2023-02-04T11:42:42.526Z,96102.38
2023-02-04T11:45:35.001Z,96091.53
2023-02-04T11:48:21.501Z,96109.13
2023-02-04T11:51:00.396Z,96111.31
2023-02-04T11:53:32.917Z,96114.16
2023-02-04T11:56:08.658Z,96116.56
2023-02-04T11:58:39.389Z,96093.38
2023-02-04T12:01:30.406Z,96105.91
2023-02-04T12:04:01.110Z,96116.50
2023-02-04T12:06:36.850Z,96116.66
2023-02-04T12:09:23.289Z,96114.91
2023-02-04T12:11:54.361Z,96115.09
2023-02-04T12:14:21.994Z,96093.53
2023-02-04T12:16:56.513Z,96067.16
2023-02-04T12:19:28.861Z,96105.25
2023-02-04T12:21:55.977Z,96079.78
2023-02-04T12:24:23.047Z,96107.00
2023-02-04T12:26:50.017Z,96049.56
2023-02-04T12:29:16.772Z,96092.56
2023-02-04T12:36:05.661Z,96104.00
2023-02-04T12:38:32.405Z,96093.09
2023-02-04T12:40:59.375Z,96091.34
2023-02-04T12:43:32.142Z,96115.84
2023-02-04T12:45:58.935Z,96110.06
2023-02-04T12:48:42.901Z,96111.19
2023-02-04T12:51:10.427Z,96110.34
2023-02-04T12:53:37.269Z,96087.81
2023-02-04T12:56:04.769Z,96107.84
2023-02-04T12:58:53.935Z,96077.81
2023-02-04T13:01:19.038Z,96100.09
2023-02-04T13:03:45.839Z,96109.25
2023-02-04T13:06:17.560Z,96126.56
2023-02-04T13:08:56.240Z,96132.38
2023-02-04T13:11:25.402Z,96107.34
2023-02-04T13:13:52.155Z,96124.16
2023-02-04T13:16:19.537Z,96132.94
2023-02-04T13:18:46.337Z,96138.31
2023-02-04T13:21:13.161Z,96130.44
2023-02-04T13:23:39.944Z,96120.41
2023-02-04T13:26:07.920Z,96148.25
2023-02-04T13:28:36.043Z,96151.63
2023-02-04T13:31:04.414Z,96154.69
2023-02-04T13:33:31.350Z,96147.00
2023-02-04T13:35:59.098Z,96137.91
2023-02-04T13:38:26.130Z,96141.00
2023-02-04T13:40:53.025Z,96150.34
2023-02-04T13:43:20.417Z,96143.16
2023-02-04T13:45:49.103Z,96144.78
2023-02-04T13:48:16.730Z,96120.88
2023-02-04T13:50:43.540Z,96168.56
2023-02-04T13:54:27.967Z,96164.28
2023-02-04T13:56:54.726Z,96150.47
2023-02-04T13:59:21.513Z,96159.88
2023-02-04T14:01:48.351Z,96163.03
2023-02-04T14:04:15.136Z,96150.75
2023-02-04T14:06:43.790Z,96149.03
2023-02-04T14:09:15.071Z,96148.97
2023-02-04T14:11:41.860Z,96158.97
2023-02-04T14:14:08.805Z,96155.78
2023-02-04T14:16:37.788Z,96166.81
2023-02-04T14:19:05.253Z,96140.97
2023-02-04T14:21:32.142Z,96160.94
2023-02-04T14:23:59.085Z,96174.31
2023-02-04T14:26:25.893Z,96169.44
2023-02-04T14:28:52.831Z,96188.56
2023-02-04T14:31:19.743Z,96202.91
2023-02-04T14:33:48.568Z,96189.81
2023-02-04T14:36:16.689Z,96208.78
2023-02-04T14:38:43.462Z,96183.47
2023-02-04T14:41:11.526Z,96183.28
2023-02-04T14:43:38.328Z,96199.72
2023-02-04T14:46:05.740Z,96207.56
2023-02-04T14:48:32.831Z,96184.53
2023-02-04T14:50:59.606Z,96163.44
2023-02-04T14:53:26.390Z,96189.16
2023-02-04T14:55:53.159Z,96194.19
2023-02-04T14:58:20.032Z,96155.09
2023-02-04T15:00:47.006Z,96206.84
2023-02-04T15:03:13.761Z,96188.97
2023-02-04T15:05:40.537Z,96206.94
2023-02-04T15:08:07.295Z,96204.97
2023-02-04T15:10:34.379Z,96201.50
2023-02-04T15:13:01.353Z,96211.53
2023-02-04T15:15:28.261Z,96172.84
2023-02-04T15:17:55.012Z,96209.03
2023-02-04T15:20:21.765Z,96193.25
2023-02-04T15:22:51.917Z,96224.41
2023-02-04T15:25:19.393Z,96235.38
2023-02-04T15:27:46.265Z,96226.63
2023-02-04T15:30:16.068Z,96224.00
2023-02-04T15:32:44.695Z,96209.69
2023-02-04T15:35:12.440Z,96209.03
2023-02-04T15:37:39.249Z,96185.94
2023-02-04T15:40:06.682Z,96204.22
2023-02-04T15:42:33.430Z,96195.88
2023-02-04T15:45:00.199Z,96205.09
2023-02-04T15:47:26.969Z,96206.31
2023-02-04T15:49:53.687Z,96224.09
2023-02-04T15:52:24.945Z,96217.19
2023-02-04T15:54:52.472Z,96211.97
2023-02-04T15:57:19.220Z,96200.19
2023-02-04T15:59:45.984Z,96225.13
2023-02-04T16:02:12.760Z,96247.91
2023-02-04T16:04:40.630Z,96244.75
2023-02-04T16:07:08.550Z,96240.97
2023-02-04T16:09:36.080Z,96229.84
2023-02-04T16:12:03.999Z,96242.53
2023-02-04T16:14:30.834Z,96224.38
2023-02-04T16:16:57.628Z,96238.69
2023-02-04T16:19:24.429Z,96232.31
2023-02-04T16:21:51.232Z,96237.94
2023-02-04T16:24:18.635Z,96242.09
2023-02-04T16:26:46.246Z,96244.53
2023-02-04T16:29:13.089Z,96257.47
2023-02-04T16:31:39.887Z,96254.41
2023-02-04T16:34:06.667Z,96241.59
2023-02-04T16:36:33.494Z,96240.22
2023-02-04T16:39:00.303Z,96259.13
2023-02-04T16:41:27.195Z,96257.66
2023-02-04T16:43:54.027Z,96260.75
2023-02-04T16:46:21.185Z,96250.56
2023-02-04T16:48:47.963Z,96264.78
2023-02-04T16:51:14.738Z,96275.03
2023-02-04T16:53:41.575Z,96260.16
2023-02-04T16:56:08.382Z,96278.69
2023-02-04T16:58:35.128Z,96261.53
2023-02-04T17:01:01.880Z,96266.31
2023-02-04T17:03:29.416Z,96281.41
2023-02-04T17:05:56.154Z,96286.31
2023-02-04T17:08:22.977Z,96277.47
2023-02-04T17:11:08.480Z,96289.00
2023-02-04T17:13:35.614Z,96266.59
2023-02-04T17:16:02.718Z,96281.84
2023-02-04T17:18:33.248Z,96286.66
2023-02-04T17:21:00.493Z,96288.88
2023-02-04T17:23:28.477Z,96278.97
2023-02-04T17:25:55.415Z,96283.84
2023-02-04T17:28:22.286Z,96284.47
2023-02-04T17:30:49.121Z,96286.47
2023-02-04T17:33:15.873Z,96282.50
2023-02-04T17:35:42.634Z,96293.72
2023-02-04T17:38:10.239Z,96305.91
2023-02-04T17:40:36.977Z,96298.84
2023-02-04T17:43:04.038Z,96292.34
2023-02-04T17:45:31.508Z,96270.72
2023-02-04T17:47:59.869Z,96296.47
2023-02-04T17:50:26.686Z,96317.19
2023-02-04T17:52:53.508Z,96297.69
2023-02-04T17:55:28.841Z,96289.78
2023-02-04T17:58:00.758Z,96308.41
2023-02-04T18:00:31.057Z,96320.31
2023-02-04T18:02:58.029Z,96326.91
2023-02-04T18:05:28.301Z,96338.22
2023-02-04T18:08:16.363Z,96330.88
2023-02-04T18:10:47.128Z,96334.59
2023-02-04T18:13:19.672Z,96332.44
2023-02-04T18:15:56.389Z,96333.44
2023-02-04T18:18:36.708Z,96327.88
2023-02-04T18:21:25.029Z,96343.75
2023-02-04T18:24:30.653Z,96345.88
2023-02-04T18:27:04.734Z,96325.84
2023-02-04T18:29:36.988Z,96346.31
2023-02-04T18:32:24.114Z,96336.38
2023-02-04T18:34:56.067Z,96344.78
2023-02-04T18:37:36.881Z,96350.09
2023-02-04T18:40:09.339Z,96348.56
2023-02-04T18:42:42.742Z,96348.72
2023-02-04T18:45:27.886Z,96352.28
2023-02-04T18:48:17.599Z,96353.22
2023-02-04T18:50:46.456Z,96340.19
2023-02-04T18:53:13.636Z,96318.34
2023-02-04T18:55:52.541Z,96347.16
2023-02-04T18:58:43.092Z,96354.63
2023-02-04T19:01:12.980Z,96344.56
2023-02-04T19:03:47.001Z,96346.09
2023-02-04T19:06:27.838Z,96330.69
2023-02-04T19:09:25.891Z,96344.97
2023-02-04T19:11:55.887Z,96311.13
2023-02-04T19:14:39.109Z,96339.94
2023-02-04T19:17:27.298Z,96338.81
2023-02-04T19:20:06.180Z,96342.31
2023-02-04T19:22:47.915Z,96329.59
2023-02-04T19:25:33.235Z,96348.97
2023-02-04T19:28:03.517Z,96346.38
2023-02-04T19:30:30.311Z,96346.69
2023-02-04T19:33:11.491Z,96344.25
2023-02-04T19:35:48.079Z,96340.13
2023-02-04T19:38:46.079Z,96337.00
2023-02-04T19:41:34.105Z,96343.66
2023-02-04T19:44:31.022Z,96351.38
2023-02-04T19:47:17.908Z,96346.31
2023-02-04T19:49:44.776Z,96344.97
2023-02-04T19:52:34.983Z,96346.09
2023-02-04T19:55:25.299Z,96329.97
2023-02-04T19:58:15.532Z,96342.16
2023-02-04T20:00:50.784Z,96340.63
2023-02-04T20:03:43.163Z,96338.47
2023-02-04T20:06:09.812Z,96336.59
2023-02-04T20:08:52.894Z,96347.97
2023-02-04T20:11:38.375Z,96346.34
2023-02-04T20:14:14.168Z,96350.75
2023-02-04T20:16:46.791Z,96349.97
2023-02-04T20:19:28.649Z,96345.19
2023-02-04T20:22:10.505Z,96353.78
2023-02-04T20:24:41.383Z,96336.34
2023-02-04T20:27:38.383Z,96357.63
2023-02-04T20:30:08.538Z,96368.75
2023-02-04T20:32:48.000Z,96353.75
2023-02-04T20:35:53.538Z,96365.00
2023-02-04T20:38:23.087Z,96345.06
2023-02-04T20:40:50.534Z,96382.34
2023-02-04T20:43:21.725Z,96369.00
2023-02-04T20:45:56.407Z,96386.63
2023-02-04T20:48:36.154Z,96384.22
2023-02-04T20:51:05.215Z,96389.34
2023-02-04T20:53:52.484Z,96376.00
2023-02-04T20:56:32.244Z,96399.69
2023-02-04T20:59:33.965Z,96391.34
2023-02-04T21:02:02.160Z,96386.50
2023-02-04T21:04:39.430Z,96398.41
2023-02-04T21:07:21.421Z,96392.50
2023-02-04T21:09:49.252Z,96402.03
2023-02-04T21:12:16.286Z,96383.50
2023-02-04T21:14:43.018Z,96379.75
2023-02-04T21:17:09.819Z,96392.03
2023-02-04T21:19:37.103Z,96410.91
2023-02-04T21:22:04.007Z,96379.59
2023-02-04T21:24:32.055Z,96379.09
2023-02-04T21:26:59.142Z,96378.31
2023-02-04T21:29:26.210Z,96396.59
2023-02-04T21:31:54.807Z,96393.16
2023-02-04T21:34:21.974Z,96355.47
2023-02-04T21:36:48.812Z,96384.94
2023-02-04T21:39:15.570Z,96406.94
2023-02-04T21:41:42.310Z,96390.94
2023-02-04T21:44:09.069Z,96378.00
2023-02-04T21:46:35.962Z,96387.38
2023-02-04T21:49:04.026Z,96388.66
2023-02-04T21:51:30.842Z,96395.81
2023-02-04T21:53:57.884Z,96393.00
2023-02-04T21:56:24.729Z,96366.13
2023-02-04T21:58:52.531Z,96375.56
2023-02-04T22:01:19.351Z,96388.81
2023-02-04T22:03:46.176Z,96371.00
2023-02-04T22:06:12.945Z,96394.75
2023-02-04T22:08:39.706Z,96391.31
2023-02-04T22:11:06.451Z,96380.38
2023-02-04T22:13:45.856Z,96404.97
2023-02-04T22:16:12.750Z,96384.25
2023-02-04T22:18:39.577Z,96351.63
2023-02-04T22:21:06.508Z,96398.44
2023-02-04T22:23:33.287Z,96407.56
2023-02-04T22:26:00.012Z,96380.97
2023-02-04T22:28:26.768Z,96392.78
2023-02-04T22:30:54.370Z,96371.00
2023-02-04T22:33:21.259Z,96407.88
2023-02-04T22:35:48.633Z,96387.59
2023-02-04T22:38:15.552Z,96406.00
2023-02-04T22:40:42.274Z,96404.19
2023-02-04T22:43:09.027Z,96406.84
2023-02-04T22:45:36.018Z,96399.16
2023-02-04T22:48:02.885Z,96407.56
2023-02-04T22:50:29.630Z,96425.25
2023-02-04T22:52:56.395Z,96405.63
2023-02-04T22:55:23.734Z,96417.28
2023-02-04T22:57:50.545Z,96407.19
2023-02-04T23:00:17.733Z,96402.03
2023-02-04T23:02:44.490Z,96401.03
2023-02-04T23:05:11.226Z,96371.47
2023-02-04T23:07:38.071Z,96382.28
2023-02-04T23:10:05.507Z,96396.47
2023-02-04T23:12:32.291Z,96408.69
2023-02-04T23:14:59.038Z,96390.56
2023-02-04T23:17:25.882Z,96392.97
2023-02-04T23:19:52.649Z,96396.28
2023-02-04T23:22:19.405Z,96356.06
2023-02-04T23:24:46.237Z,96409.41
2023-02-04T23:27:13.087Z,96409.53
2023-02-04T23:29:40.303Z,96407.72
2023-02-04T23:32:07.627Z,96415.44
2023-02-04T23:34:34.848Z,96424.44
2023-02-04T23:37:01.601Z,96415.91
2023-02-04T23:39:28.814Z,96411.34
2023-02-04T23:41:55.603Z,96394.53
2023-02-04T23:44:22.810Z,96369.81
2023-02-04T23:46:49.662Z,96381.31
2023-02-04T23:49:16.703Z,96399.69
2023-02-04T23:51:43.624Z,96406.47
2023-02-04T23:54:10.402Z,96401.19
2023-02-04T23:56:37.129Z,96390.97
2023-02-04T23:59:05.800Z,96402.88
